Timeline UpdatesTrip UpdatesNews PostsPvt PostsTravel TipsAdmin PostsConv PostsFollowed PostsChat RequestsBlog PostsPNR Posts

Disclaimer
Search
 
 
Tue Sep 2, 2014 02:31:24 ISTHomeTrainsΣChainsAtlasPNRForumGalleryNewsFAQTripsMembersLoginFeedback
No Recent News for this Train
Other Trains in the News **new
Latest...
.
Mon Mar 03, 2014 (11:30AM)
⇐ Return Journey: Train# 13484

13483/Farakka Express (via Faizabad)

Time-Table HAS CHANGED.
Yesterday (11:26PM)
Change Departure Station:
Change Arrival Station:
Post a Train Travel TipPost a Train Travel Tip **new
Post a Comment/Question/Picture/VideoPost a Comment/Question/Picture/Video
Pantry/Catering
✓ Pantry Car Avbl
✓ Catering Avbl
RSA - Rake Sharing
13413/13414/04031/04032
Rake/Coach Composition
LOCO:PARCEL VAN:SLR:UR:UR:UR:UR:UR:B1:A1:PC:S9:S8:S7:S6:S5:S4:S3:S2:S1:UR:SLR; Author: ✖★hAяѕH °° °°•ⓥⓘⓡDiesel Philic°°•ⓥⓘⓡ
Loco
Loco: [MLDT to LKO] WDM#3A of TKD/LDH shed /TKD WDM#3D...
Read more...
GZB#WAP5/7 [LKO to DLI]
News    PNR    Forum    Time-Table    Availability    Fare Chart    Map    Arr/Dep History    Trips    Gallery    ΣChains    X/O    Timeline    
Travel Time: 2h 30m    3 halts    Distance: 108 km    Avg Speed: 43 km/hr
Type: Mail/Express
Zone: ER/Eastern
Departs @ 19:10
Platform# 1
S TW F 
Malda Town/MLDT 
Arrives @ 21:40
Platform# 2
S TW F 
Sahibganj Junction/SBG 

3 halts. 17 intermediate Stations between Malda Town and Sahibganj Junction

Show ALL intermediate Stations  Show Old Time-Table

#CodeStation NameX/OArrivesAvgDepartsAvgHaltPFDay#KmSpeedElevZoneAddress
1MLDT»Malda Town (5)»  -19:10-110.06430mERDist - Malda, West Bengal
2NFKNew Farakka Junction (3)  19:43-19:53-10m1135.13432mERDist - Murshidabad, West Bengal
3BHWBarharwa Junction (3)X  20:25-20:29-4m1153.16336mERBarharwa, Jharkhand
4TPHTinpahar Junction (3)  20:47 20:45-20:48 20:46-1m1169.84245mERBamangawan, Jharkhand
5SBG•Sahibganj Junction (3)•X  21:40-21:50-10m21107.54338mERSahibganj, Jharkhand
6PPTPirpainti (2)  22:23-22:24-1m--1131.15653mERBhagalpur, Bihar
7CLGKahalgaon (2)O  22:46-22:47-1m21151.45944mERBhagalpur, Bihar
8SBOSabaur (3)  23:10-23:11-1m--1173.92442mERSabour, Bihar
9BGPBhagalpur Junction (6)X  23:30-23:40-10m--1181.57949mERBhagalpur, Bihar
10SGGSultanGanj (3)  23:59-00:01-2m--1206.44542mERSultanganj, Bihar
11BUPBariarpur (3)  00:25-00:26-1m--2224.44542mERMunger, Bihar
12JMPJamalpur Junction (4)X  00:41-00:51-10m--2235.56959mERJamalpur 06344-243101, Bihar
13AHAAbhaipur (2)  01:10-01:11-1m--2257.32252mERAbhaipur, Bihar
14KIULKiul Junction (5)  02:15-02:25-10m--2280.35853mECRDist. Lakhisarai, Bihar
15BRYABarhiya (3)O  02:42-02:43-1m--2296.85647mECRBarahiya, Bihar
16MKAMokama Junction (4)  03:02-03:04-2m--2314.55048mECRPatna, Bihar
17BARHBarh (3)X  03:35-03:36-1m--2340.45849mECRBarh, Bihar
18BKPBakhtiyarpur Junction (5)  03:55-03:59-4m--2358.78651mECRPatna, Bihar
19FUTFatwa (6)  04:15-04:16-1m--2381.71753mECRPatna, Bihar
20PNCPatna Saheb (3)  04:55 05:00-04:56 05:01-1m--2393.94459mECRPatna, Bihar
21RJPBRajendra Nagar Bihar (4)  05:11-05:13-2m--2401.22255mECRPatna 800001, Bihar
22PNBEPatna Junction (10)X  05:20-05:30-10m--2403.83857mECRPatna 800001, Bihar
23DNRDanapur (5)X  05:45-05:55-10m--2413.28758mECRKhagaul, Bihar
24BTABihta (2)X  06:07-06:08-1m--2430.55862mECRDistt: Patna, Bihar
25ARAAra Junction (3)  06:31-06:33-2m--2452.79263mECRarrah( 06182-233411), Bihar
26BEABihiya (3)  06:47-06:48-1m--2474.17467mECRBehea, Bihar
27RPRRaghunathpur (4)  07:00-07:01-1m--2488.97469mECRRaghunathpur, Bihar
28DUREDumraon (3)  07:14-07:15-1m--2504.94970mECRDumraon, Bihar
29BXRBuxar (3)X  07:35-07:40-5m--2521.27367mECRBuxar, Bihar
30CSAChausa (2)X  07:49-07:50-1m--2532.24368mECRState Highway 14, Bihar
31GMRGahmar (2)  08:03-08:04-1m--2541.47068mECRDistt: Ghazipur, Uttar Pradesh
32BWHBhadaura (2)X  08:10 08:11-08:12-2 1m--2549.64769mECRGhazipur, Uttar Pradesh
33DLNDildarnagar Junction (2)  08:22-08:24-2m--2557.48172mECRDildarnagar, Uttar Pradesh
34ZNAZamania (2)  08:34-08:35-1m--2570.92977mECRGhazipur, Uttar Pradesh
35MGSMughal Sarai Junction (8)  10:05-10:20-15m32615.12583mECRMughalsarai 232101, Uttar Pradesh
36BSBVaranasi Junction (9)X  11:00-11:20-20m82631.67382mNRVaranasi 221002, Uttar Pradesh
37JLLJalalGanj (2)  11:52-11:53-1m--2670.83187mNRJalalganj Railway Station, Uttar Pradesh
38ZBDZafarabad Junction (4)X  12:16-12:17-1m--2682.81683mNRNational Highway 56, Uttar Pradesh
39JNUJaunpur Junction (5)X  12:42-12:43-1m12689.23183mNRJaunpur, Uttar Pradesh
40SHGShahganj Junction (4)  13:47 13:48-13:51 13:52-4m--2722.57190mNRShahganj, Uttar Pradesh
41MLPRMalipur (2)  14:17 14:13-14:18 14:14-1m--2747.56492mNRMalipur, Uttar Pradesh
42ABPAkbarpur (2)  14:36 14:32-14:40 14:36-4m12766.77892mNRAkbarpur, Uttar Pradesh
43GGJGoshainGanj (3)  14:58 14:53-14:59 14:54-1m--2788.96698mNRGoshainganj, Uttar Pradesh
44AYAyodhya Junction (3)  15:27 15:23-15:28 15:24-1m12820.61798mNRAyodhya, Uttar Pradesh
45ACNDAcharya Narendra Dev Nagar  15:39 15:40-15:40 15:41-1m--2825.17104mNRFaizabad, Uttar Pradesh
46FDFaizabad Junction (5)X  16:00-16:05-5m--2827.357104mNRFaizabad, Uttar Pradesh
47SLWSohwalX  16:21-16:22-1m--2842.569107mNRFaizabad Rd, Uttar Pradesh
48RDLRudauli (2)  16:41 16:42-16:42 16:43-1m12865.469112mNRRudauli, Uttar Pradesh
49DYDDaryabad  17:03-17:04-1m22888.551116mNRFaizabad Rd, Uttar Pradesh
50BBKBarabanki Junction (4)X  17:49-17:50-1m12926.521122mNRPin-225001, Uttar Pradesh
51LKOLucknow Charbagh (9)X19:10-19:35-25m72955.167123mNR226004, Uttar Pradesh
52ONUnnao Junction (5)X  20:24-20:25-1m221009.726129mNRUnnao, Uttar Pradesh
53CNBKanpur Central (10)X  21:05-21:15-10m721027.186128mNCRKANPUR-208 001, Uttar Pradesh
54ETWEtawah (5)X  22:52-22:53-1m221166.481154mNCRDistt. Etawah, Uttar Pradesh
55SKBShikohabad Junction (4)  23:34-23:35-1m321221.854166mNCRDistrict Firozabad, Uttar Pradesh
56FZDFirozabad (4)  23:57-23:58-1m321241.731164mNCRFirozabad, Uttar Pradesh
57TDLTundla Junction (5)X  00:30-00:38-8m231258.254167mNCRDistt.Firozabad, Uttar Pradesh
58HRSHathras Junction (3)  01:19 01:31-01:20 01:32-1m--31306.282183mNCRMahamaya Nagar(05722-242803), Uttar Pradesh
59ALJNAligarh Junction (4)X  01:41 01:54-01:46 01:59-5m331336.4119192mNCRAligarh, Uttar Pradesh
60KRJKhurja Junction (4)  02:16 02:21-02:21 02:26-5m--31379.945199mNCRBulandshahr, Uttar Pradesh
61GZBGhaziabad Junction (6)  03:40 03:50-03:42 03:52-2m331442.637217mNRGhaziabad, Uttar Pradesh
62SBBSahibabad Junction (5)  03:52 04:03-03:53 04:04-1m--31449.238209mNRGhaziabad, Uttar Pradesh
63DSAShahdara Junction (4)  04:05 04:15-04:06 04:16-1m--31456.216212mNRCircular Rd, Delhi NCT
64DLIOld Delhi Junction (16)  04:30 04:40--1031462.5-219mNRNear Chandni Chowk Metro Station, Delhi NCT
Scroll to Top
Scroll to Bottom